Time,TemperatureF,DewpointF,PressureIn,WindDirection,WindDirectionDegrees,WindSpeedMPH,WindSpeedGustMPH,Humidity,HourlyPrecipIn,Conditions,Clouds,dailyrainin,SoftwareType,DateUTC
2013-01-03 00:02:00,25.3,14.8,30.11,North,355,1.0,2.0,64,0.00,,,0.00,Wunderground v.1.15,2013-01-03 05:02:00,
2013-01-03 00:03:00,25.3,14.8,30.11,North,351,1.0,2.0,64,0.00,,,0.00,Wunderground v.1.15,2013-01-03 05:03:00,
2013-01-03 00:05:00,25.3,14.8,30.11,North,351,0.0,2.0,64,0.00,,,0.00,Wunderground v.1.15,2013-01-03 05:05:00,
2013-01-03 00:08:00,25.3,14.8,30.11,North,351,0.0,2.0,64,0.00,,,0.00,Wunderground v.1.15,2013-01-03 05:08:00,
2013-01-03 00:13:00,25.3,14.8,30.11,North,355,0.0,0.0,64,0.00,,,0.00,Wunderground v.1.15,2013-01-03 05:13:00,
2013-01-03 00:19:00,25.3,14.8,30.11,West,279,0.0,1.0,64,0.00,,,0.00,Wunderground v.1.15,2013-01-03 05:19:00,
2013-01-03 00:25:00,25.1,14.6,30.11,West,279,1.0,1.0,64,0.00,,,0.00,Wunderground v.1.15,2013-01-03 05:25:00,
2013-01-03 00:31:00,25.1,14.6,30.11,WNW,286,0.0,0.0,64,0.00,,,0.00,Wunderground v.1.15,2013-01-03 05:31:00,
2013-01-03 00:37:00,25.1,14.6,30.11,WNW,286,0.0,1.0,64,0.00,,,0.00,Wunderground v.1.15,2013-01-03 05:37:00,
2013-01-03 00:42:00,25.3,14.8,30.11,West,269,0.0,1.0,64,0.00,,,0.00,Wunderground v.1.15,2013-01-03 05:42:00,
2013-01-03 00:48:00,25.4,14.9,30.11,NNW,345,0.0,2.0,64,0.00,,,0.00,Wunderground v.1.15,2013-01-03 05:48:00,
2013-01-03 00:54:00,25.4,14.9,30.11,NNW,345,0.0,1.0,64,0.00,,,0.00,Wunderground v.1.15,2013-01-03 05:54:00,
2013-01-03 01:00:00,25.4,14.9,30.11,NNW,345,0.0,0.0,64,0.00,,,0.00,Wunderground v.1.15,2013-01-03 06:00:00,
2013-01-03 01:05:00,25.4,14.9,30.11,NNW,344,0.0,0.0,64,0.00,,,0.00,Wunderground v.1.15,2013-01-03 06:05:00,
2013-01-03 01:10:00,25.4,14.9,30.11,NNW,345,0.0,0.0,64,0.00,,,0.00,Wunderground v.1.15,2013-01-03 06:10:00,
2013-01-03 01:16:00,25.4,14.9,30.11,NNW,345,0.0,1.0,64,0.00,,,0.00,Wunderground v.1.15,2013-01-03 06:16:00,
2013-01-03 01:22:00,25.6,15.1,30.11,NW,322,0.0,0.0,64,0.00,,,0.00,Wunderground v.1.15,2013-01-03 06:22:00,
2013-01-03 01:28:00,25.6,15.1,30.11,NW,322,0.0,2.0,64,0.00,,,0.00,Wunderground v.1.15,2013-01-03 06:28:00,
2013-01-03 01:34:00,25.6,15.1,30.11,NNW,342,0.0,1.0,64,0.00,,,0.00,Wunderground v.1.15,2013-01-03 06:34:00,
2013-01-03 01:39:00,25.7,14.8,30.11,NNW,342,0.0,2.0,63,0.00,,,0.00,Wunderground v.1.15,2013-01-03 06:39:00,
2013-01-03 01:45:00,25.7,14.8,30.11,NNW,342,2.0,2.0,63,0.00,,,0.00,Wunderground v.1.15,2013-01-03 06:45:00,
2013-01-03 01:51:00,25.7,14.8,30.11,NNW,348,0.0,0.0,63,0.00,,,0.00,Wunderground v.1.15,2013-01-03 06:51:00,
2013-01-03 01:57:00,25.7,14.8,30.11,NNW,348,0.0,0.0,63,0.00,,,0.00,Wunderground v.1.15,2013-01-03 06:57:00,
2013-01-03 02:02:00,25.7,14.8,30.11,NNW,348,0.0,1.0,63,0.00,,,0.00,Wunderground v.1.15,2013-01-03 07:02:00,
2013-01-03 02:07:00,25.7,14.8,30.11,NNW,348,1.0,2.0,63,0.00,,,0.00,Wunderground v.1.15,2013-01-03 07:07:00,
2013-01-03 02:12:00,25.7,14.8,30.11,NNW,330,0.0,1.0,63,0.00,,,0.00,Wunderground v.1.15,2013-01-03 07:12:00,
2013-01-03 02:17:00,25.8,14.9,30.12,NNW,342,0.0,2.0,63,0.00,,,0.00,Wunderground v.1.15,2013-01-03 07:17:00,
2013-01-03 02:22:00,25.8,14.9,30.12,NNW,342,0.0,1.0,63,0.00,,,0.00,Wunderground v.1.15,2013-01-03 07:22:00,
2013-01-03 02:27:00,25.8,14.9,30.12,NNW,342,2.0,2.0,63,0.00,,,0.00,Wunderground v.1.15,2013-01-03 07:27:00,
2013-01-03 02:32:00,25.8,14.9,30.12,NNW,342,1.0,2.0,63,0.00,,,0.00,Wunderground v.1.15,2013-01-03 07:32:00,
2013-01-03 02:37:00,25.8,14.9,30.12,NNW,342,0.0,2.0,63,0.00,,,0.00,Wunderground v.1.15,2013-01-03 07:37:00,
2013-01-03 02:42:00,25.8,14.9,30.12,NNW,342,1.0,1.0,63,0.00,,,0.00,Wunderground v.1.15,2013-01-03 07:42:00,
2013-01-03 02:47:00,25.8,14.9,30.11,NNW,343,0.0,1.0,63,0.00,,,0.00,Wunderground v.1.15,2013-01-03 07:47:00,
2013-01-03 02:52:00,25.8,14.9,30.11,NNW,343,1.0,1.0,63,0.00,,,0.00,Wunderground v.1.15,2013-01-03 07:52:00,
2013-01-03 02:57:00,25.8,14.9,30.11,NNW,337,0.0,4.0,63,0.00,,,0.00,Wunderground v.1.15,2013-01-03 07:57:00,
2013-01-03 03:02:00,25.8,14.9,30.11,NNW,337,0.0,1.0,63,0.00,,,0.00,Wunderground v.1.15,2013-01-03 08:02:00,
2013-01-03 03:07:00,25.8,14.9,30.11,NNW,337,0.0,2.0,63,0.00,,,0.00,Wunderground v.1.15,2013-01-03 08:07:00,
2013-01-03 03:12:00,25.7,14.8,30.11,NNW,337,0.0,1.0,63,0.00,,,0.00,Wunderground v.1.15,2013-01-03 08:12:00,
2013-01-03 03:18:00,25.7,14.8,30.11,NNW,337,0.0,1.0,63,0.00,,,0.00,Wunderground v.1.15,2013-01-03 08:18:00,
2013-01-03 03:23:00,25.7,14.8,30.11,NNW,337,2.0,2.0,63,0.00,,,0.00,Wunderground v.1.15,2013-01-03 08:23:00,
2013-01-03 03:28:00,25.7,14.8,30.11,NNW,337,0.0,2.0,63,0.00,,,0.00,Wunderground v.1.15,2013-01-03 08:28:00,
2013-01-03 03:33:00,25.7,14.8,30.11,NNW,337,0.0,1.0,63,0.00,,,0.00,Wunderground v.1.15,2013-01-03 08:33:00,
2013-01-03 03:38:00,25.6,14.7,30.11,NNW,337,0.0,2.0,63,0.00,,,0.00,Wunderground v.1.15,2013-01-03 08:38:00,
2013-01-03 03:43:00,25.6,14.7,30.11,NNW,337,0.0,1.0,63,0.00,,,0.00,Wunderground v.1.15,2013-01-03 08:43:00,
2013-01-03 03:48:00,25.4,14.5,30.10,NNW,337,0.0,1.0,63,0.00,,,0.00,Wunderground v.1.15,2013-01-03 08:48:00,
2013-01-03 03:53:00,25.4,14.5,30.10,NNW,337,0.0,0.0,63,0.00,,,0.00,Wunderground v.1.15,2013-01-03 08:53:00,
2013-01-03 03:58:00,25.3,14.5,30.10,NNW,337,0.0,1.0,63,0.00,,,0.00,Wunderground v.1.15,2013-01-03 08:58:00,
2013-01-03 04:03:00,25.1,14.3,30.11,NNW,337,0.0,1.0,63,0.00,,,0.00,Wunderground v.1.15,2013-01-03 09:03:00,
2013-01-03 04:08:00,25.1,14.6,30.11,NNW,337,0.0,2.0,64,0.00,,,0.00,Wunderground v.1.15,2013-01-03 09:08:00,
2013-01-03 04:13:00,25.1,14.6,30.11,NNW,337,0.0,1.0,64,0.00,,,0.00,Wunderground v.1.15,2013-01-03 09:13:00,
2013-01-03 04:18:00,25.0,14.5,30.10,NNW,337,0.0,1.0,64,0.00,,,0.00,Wunderground v.1.15,2013-01-03 09:18:00,
2013-01-03 04:23:00,25.0,14.5,30.10,NNW,337,1.0,1.0,64,0.00,,,0.00,Wunderground v.1.15,2013-01-03 09:23:00,
2013-01-03 04:28:00,25.0,14.5,30.10,NNW,337,0.0,2.0,64,0.00,,,0.00,Wunderground v.1.15,2013-01-03 09:28:00,
2013-01-03 04:33:00,24.8,14.3,30.10,NNW,337,0.0,0.0,64,0.00,,,0.00,Wunderground v.1.15,2013-01-03 09:33:00,
2013-01-03 04:38:00,24.7,14.2,30.10,NNW,337,0.0,1.0,64,0.00,,,0.00,Wunderground v.1.15,2013-01-03 09:38:00,
2013-01-03 04:43:00,24.7,14.2,30.10,NNW,337,0.0,2.0,64,0.00,,,0.00,Wunderground v.1.15,2013-01-03 09:43:00,
2013-01-03 04:48:00,24.7,14.2,30.10,NNW,337,0.0,2.0,64,0.00,,,0.00,Wunderground v.1.15,2013-01-03 09:48:00,
2013-01-03 04:53:00,24.5,14.1,30.10,NNW,337,0.0,0.0,64,0.00,,,0.00,Wunderground v.1.15,2013-01-03 09:53:00,
2013-01-03 04:58:00,24.5,14.1,30.10,NNW,337,0.0,1.0,64,0.00,,,0.00,Wunderground v.1.15,2013-01-03 09:58:00,
2013-01-03 05:03:00,24.5,14.4,30.10,NNW,337,0.0,2.0,65,0.00,,,0.00,Wunderground v.1.15,2013-01-03 10:03:00,
2013-01-03 05:08:00,24.5,14.4,30.10,NNW,337,0.0,2.0,65,0.00,,,0.00,Wunderground v.1.15,2013-01-03 10:08:00,
2013-01-03 05:13:00,24.5,14.4,30.10,NNW,337,0.0,1.0,65,0.00,,,0.00,Wunderground v.1.15,2013-01-03 10:13:00,
2013-01-03 05:18:00,24.5,14.4,30.10,NNW,337,0.0,2.0,65,0.00,,,0.00,Wunderground v.1.15,2013-01-03 10:18:00,
2013-01-03 05:23:00,24.4,14.3,30.10,NNW,337,0.0,1.0,65,0.00,,,0.00,Wunderground v.1.15,2013-01-03 10:23:00,
2013-01-03 05:28:00,24.4,14.3,30.10,NNW,337,0.0,2.0,65,0.00,,,0.00,Wunderground v.1.15,2013-01-03 10:28:00,
2013-01-03 05:33:00,24.2,14.1,30.10,NNW,337,0.0,0.0,65,0.00,,,0.00,Wunderground v.1.15,2013-01-03 10:33:00,
2013-01-03 05:38:00,24.2,14.1,30.10,NNW,337,0.0,1.0,65,0.00,,,0.00,Wunderground v.1.15,2013-01-03 10:38:00,
2013-01-03 05:43:00,24.2,14.1,30.10,NNW,337,0.0,1.0,65,0.00,,,0.00,Wunderground v.1.15,2013-01-03 10:43:00,
2013-01-03 05:48:00,24.2,14.1,30.10,NNW,337,0.0,2.0,65,0.00,,,0.00,Wunderground v.1.15,2013-01-03 10:48:00,
2013-01-03 05:53:00,24.2,14.1,30.10,NNW,337,0.0,2.0,65,0.00,,,0.00,Wunderground v.1.15,2013-01-03 10:53:00,
2013-01-03 05:58:00,24.2,14.1,30.10,NNW,337,0.0,2.0,65,0.00,,,0.00,Wunderground v.1.15,2013-01-03 10:58:00,
2013-01-03 06:03:00,24.1,14.4,30.10,NNW,337,0.0,1.0,66,0.00,,,0.00,Wunderground v.1.15,2013-01-03 11:03:00,
2013-01-03 06:08:00,24.1,14.4,30.10,NNW,337,0.0,1.0,66,0.00,,,0.00,Wunderground v.1.15,2013-01-03 11:08:00,
2013-01-03 06:13:00,23.9,14.2,30.10,NNW,337,0.0,1.0,66,0.00,,,0.00,Wunderground v.1.15,2013-01-03 11:13:00,
2013-01-03 06:18:00,23.9,14.2,30.10,NNW,337,0.0,1.0,66,0.00,,,0.00,Wunderground v.1.15,2013-01-03 11:18:00,
2013-01-03 06:23:00,23.9,14.2,30.10,NNW,337,0.0,1.0,66,0.00,,,0.00,Wunderground v.1.15,2013-01-03 11:23:00,
2013-01-03 06:28:00,23.9,14.2,30.10,NNW,337,0.0,1.0,66,0.00,,,0.00,Wunderground v.1.15,2013-01-03 11:28:00,
2013-01-03 06:33:00,23.8,14.1,30.10,NNW,337,0.0,2.0,66,0.00,,,0.00,Wunderground v.1.15,2013-01-03 11:33:00,
2013-01-03 06:38:00,23.8,14.1,30.10,NNW,337,0.0,2.0,66,0.00,,,0.00,Wunderground v.1.15,2013-01-03 11:38:00,
2013-01-03 06:43:00,23.8,14.1,30.10,NNW,337,0.0,1.0,66,0.00,,,0.00,Wunderground v.1.15,2013-01-03 11:43:00,
2013-01-03 06:48:00,23.8,14.1,30.11,NNW,337,0.0,1.0,66,0.00,,,0.00,Wunderground v.1.15,2013-01-03 11:48:00,
2013-01-03 06:54:00,23.6,13.9,30.11,NNW,337,0.0,1.0,66,0.00,,,0.00,Wunderground v.1.15,2013-01-03 11:54:00,
2013-01-03 06:59:00,23.6,13.9,30.11,NNW,337,0.0,1.0,66,0.00,,,0.00,Wunderground v.1.15,2013-01-03 11:59:00,
2013-01-03 07:04:00,23.5,13.8,30.11,NNW,337,0.0,0.0,66,0.00,,,0.00,Wunderground v.1.15,2013-01-03 12:04:00,
2013-01-03 07:09:00,23.3,13.6,30.11,NNW,337,0.0,1.0,66,0.00,,,0.00,Wunderground v.1.15,2013-01-03 12:09:00,
2013-01-03 07:14:00,23.3,13.6,30.11,NNW,337,0.0,0.0,66,0.00,,,0.00,Wunderground v.1.15,2013-01-03 12:14:00,
2013-01-03 07:19:00,23.0,13.3,30.11,NNW,337,0.0,0.0,66,0.00,,,0.00,Wunderground v.1.15,2013-01-03 12:19:00,
2013-01-03 07:24:00,23.0,13.7,30.11,NNW,337,0.0,0.0,67,0.00,,,0.00,Wunderground v.1.15,2013-01-03 12:24:00,
2013-01-03 07:29:00,22.9,13.6,30.11,NNW,337,0.0,0.0,67,0.00,,,0.00,Wunderground v.1.15,2013-01-03 12:29:00,
2013-01-03 07:34:00,22.7,13.4,30.10,NNW,337,0.0,0.0,67,0.00,,,0.00,Wunderground v.1.15,2013-01-03 12:34:00,
2013-01-03 07:39:00,22.5,13.2,30.10,NNW,337,0.0,0.0,67,0.00,,,0.00,Wunderground v.1.15,2013-01-03 12:39:00,
2013-01-03 07:44:00,22.4,13.1,30.11,NNW,337,0.0,0.0,67,0.00,,,0.00,Wunderground v.1.15,2013-01-03 12:44:00,
2013-01-03 07:49:00,22.2,12.9,30.11,NNW,337,0.0,0.0,67,0.00,,,0.00,Wunderground v.1.15,2013-01-03 12:49:00,
2013-01-03 07:54:00,22.2,12.9,30.11,NNW,337,0.0,0.0,67,0.00,,,0.00,Wunderground v.1.15,2013-01-03 12:54:00,
2013-01-03 07:59:00,22.2,12.9,30.11,NNW,337,0.0,1.0,67,0.00,,,0.00,Wunderground v.1.15,2013-01-03 12:59:00,
2013-01-03 08:04:00,22.2,13.2,30.11,NNW,337,0.0,0.0,68,0.00,,,0.00,Wunderground v.1.15,2013-01-03 13:04:00,
2013-01-03 08:09:00,22.2,13.2,30.11,NNW,337,1.0,1.0,68,0.00,,,0.00,Wunderground v.1.15,2013-01-03 13:09:00,
2013-01-03 08:14:00,22.4,13.4,30.11,NNW,337,0.0,1.0,68,0.00,,,0.00,Wunderground v.1.15,2013-01-03 13:14:00,
2013-01-03 08:19:00,22.7,13.7,30.11,NNW,337,0.0,0.0,68,0.00,,,0.00,Wunderground v.1.15,2013-01-03 13:19:00,
2013-01-03 08:24:00,23.0,14.0,30.11,WNW,289,0.0,2.0,68,0.00,,,0.00,Wunderground v.1.15,2013-01-03 13:24:00,
2013-01-03 08:29:00,23.3,14.3,30.11,WNW,289,0.0,2.0,68,0.00,,,0.00,Wunderground v.1.15,2013-01-03 13:29:00,
2013-01-03 08:34:00,23.8,14.8,30.11,WNW,291,0.0,2.0,68,0.00,,,0.00,Wunderground v.1.15,2013-01-03 13:34:00,
2013-01-03 08:39:00,24.2,15.2,30.11,West,272,0.0,4.0,68,0.00,,,0.00,Wunderground v.1.15,2013-01-03 13:39:00,
2013-01-03 08:44:00,24.5,15.4,30.11,WNW,283,0.0,5.0,68,0.00,,,0.00,Wunderground v.1.15,2013-01-03 13:44:00,
2013-01-03 08:49:00,24.8,15.7,30.11,NNW,338,0.0,2.0,68,0.00,,,0.00,Wunderground v.1.15,2013-01-03 13:49:00,
2013-01-03 08:54:00,25.3,15.9,30.11,NW,323,0.0,5.0,67,0.00,,,0.00,Wunderground v.1.15,2013-01-03 13:54:00,
2013-01-03 08:59:00,25.6,16.2,30.12,NNW,346,0.0,3.0,67,0.00,,,0.00,Wunderground v.1.15,2013-01-03 13:59:00,
2013-01-03 09:04:00,26.0,16.2,30.12,West,269,0.0,5.0,66,0.00,,,0.00,Wunderground v.1.15,2013-01-03 14:04:00,
2013-01-03 09:09:00,26.3,16.5,30.12,NNW,340,1.0,5.0,66,0.00,,,0.00,Wunderground v.1.15,2013-01-03 14:09:00,
2013-01-03 09:14:00,26.6,16.4,30.12,NNW,334,0.0,2.0,65,0.00,,,0.00,Wunderground v.1.15,2013-01-03 14:14:00,
2013-01-03 09:19:00,26.9,16.3,30.12,WNW,286,0.0,2.0,64,0.00,,,0.00,Wunderground v.1.15,2013-01-03 14:19:00,
2013-01-03 09:24:00,27.3,16.4,30.12,WNW,302,2.0,5.0,63,0.00,,,0.00,Wunderground v.1.15,2013-01-03 14:24:00,
2013-01-03 09:29:00,27.6,16.3,30.12,West,281,0.0,5.0,62,0.00,,,0.00,Wunderground v.1.15,2013-01-03 14:29:00,
2013-01-03 09:34:00,27.8,16.1,30.12,NW,306,0.0,5.0,61,0.00,,,0.00,Wunderground v.1.15,2013-01-03 14:34:00,
2013-01-03 09:39:00,27.9,16.2,30.12,West,273,0.0,5.0,61,0.00,,,0.00,Wunderground v.1.15,2013-01-03 14:39:00,
2013-01-03 09:45:00,28.2,16.1,30.12,NNW,329,1.0,4.0,60,0.00,,,0.00,Wunderground v.1.15,2013-01-03 14:45:00,
2013-01-03 09:50:00,28.5,16.0,30.12,West,274,0.0,1.0,59,0.00,,,0.00,Wunderground v.1.15,2013-01-03 14:50:00,
2013-01-03 09:55:00,28.7,15.8,30.12,West,275,1.0,4.0,58,0.00,,,0.00,Wunderground v.1.15,2013-01-03 14:55:00,
2013-01-03 10:00:00,28.8,15.5,30.12,WNW,290,0.0,1.0,57,0.00,,,0.00,Wunderground v.1.15,2013-01-03 15:00:00,
2013-01-03 10:05:00,29.0,15.2,30.12,WNW,291,1.0,4.0,56,0.00,,,0.00,Wunderground v.1.15,2013-01-03 15:05:00,
2013-01-03 10:10:00,29.1,15.3,30.12,WNW,286,0.0,1.0,56,0.00,,,0.00,Wunderground v.1.15,2013-01-03 15:10:00,
2013-01-03 10:15:00,29.4,15.6,30.12,WNW,286,2.0,3.0,56,0.00,,,0.00,Wunderground v.1.15,2013-01-03 15:15:00,
2013-01-03 10:20:00,29.7,15.5,30.12,North,360,1.0,1.0,55,0.00,,,0.00,Wunderground v.1.15,2013-01-03 15:20:00,
2013-01-03 10:25:00,29.5,14.9,30.12,North,360,2.0,4.0,54,0.00,,,0.00,Wunderground v.1.15,2013-01-03 15:25:00,
2013-01-03 10:30:00,29.4,14.8,30.12,NNW,348,0.0,1.0,54,0.00,,,0.00,Wunderground v.1.15,2013-01-03 15:30:00,
2013-01-03 10:35:00,29.5,14.9,30.12,WSW,250,1.0,1.0,54,0.00,,,0.00,Wunderground v.1.15,2013-01-03 15:35:00,
2013-01-03 10:40:00,29.7,15.1,30.12,WSW,257,0.0,1.0,54,0.00,,,0.00,Wunderground v.1.15,2013-01-03 15:40:00,
2013-01-03 10:45:00,29.8,15.2,30.11,WSW,257,2.0,3.0,54,0.00,,,0.00,Wunderground v.1.15,2013-01-03 15:45:00,
2013-01-03 10:50:00,30.1,15.4,30.11,NW,316,0.0,0.0,54,0.00,,,0.00,Wunderground v.1.15,2013-01-03 15:50:00,
2013-01-03 10:55:00,30.3,15.2,30.11,West,265,1.0,4.0,53,0.00,,,0.00,Wunderground v.1.15,2013-01-03 15:55:00,
2013-01-03 11:00:00,30.6,15.5,30.10,WNW,284,1.0,2.0,53,0.00,,,0.00,Wunderground v.1.15,2013-01-03 16:00:00,
2013-01-03 11:05:00,30.9,15.8,30.10,West,263,1.0,5.0,53,0.00,,,0.00,Wunderground v.1.15,2013-01-03 16:05:00,
2013-01-03 11:10:00,31.2,15.6,30.10,WNW,296,2.0,5.0,52,0.00,,,0.00,Wunderground v.1.15,2013-01-03 16:10:00,
2013-01-03 11:15:00,31.3,15.2,30.09,NW,305,0.0,5.0,51,0.00,,,0.00,Wunderground v.1.15,2013-01-03 16:15:00,
2013-01-03 11:20:00,31.3,15.2,30.09,WNW,288,1.0,6.0,51,0.00,,,0.00,Wunderground v.1.15,2013-01-03 16:20:00,
2013-01-03 11:25:00,31.3,15.2,30.09,NW,317,0.0,6.0,51,0.00,,,0.00,Wunderground v.1.15,2013-01-03 16:25:00,
2013-01-03 11:30:00,31.6,15.5,30.08,West,259,1.0,4.0,51,0.00,,,0.00,Wunderground v.1.15,2013-01-03 16:30:00,
2013-01-03 11:35:00,31.9,15.3,30.08,West,269,2.0,5.0,50,0.00,,,0.00,Wunderground v.1.15,2013-01-03 16:35:00,
2013-01-03 11:40:00,31.9,14.9,30.08,NW,306,0.0,4.0,49,0.00,,,0.00,Wunderground v.1.15,2013-01-03 16:40:00,
2013-01-03 11:45:00,31.8,14.3,30.07,NW,313,0.0,6.0,48,0.00,,,0.00,Wunderground v.1.15,2013-01-03 16:45:00,
2013-01-03 11:50:00,31.8,14.8,30.07,WSW,249,0.0,4.0,49,0.00,,,0.00,Wunderground v.1.15,2013-01-03 16:50:00,
2013-01-03 11:55:00,32.1,15.5,30.07,West,275,4.0,5.0,50,0.00,,,0.00,Wunderground v.1.15,2013-01-03 16:55:00,
2013-01-03 12:00:00,32.4,15.3,30.07,WNW,284,0.0,1.0,49,0.00,,,0.00,Wunderground v.1.15,2013-01-03 17:00:00,
2013-01-03 12:05:00,32.4,14.9,30.07,West,280,4.0,7.0,48,0.00,,,0.00,Wunderground v.1.15,2013-01-03 17:05:00,
2013-01-03 12:10:00,32.2,14.7,30.07,WSW,239,0.0,2.0,48,0.00,,,0.00,Wunderground v.1.15,2013-01-03 17:10:00,
2013-01-03 12:15:00,32.1,14.6,30.06,West,277,0.0,8.0,48,0.00,,,0.00,Wunderground v.1.15,2013-01-03 17:15:00,
2013-01-03 12:20:00,31.8,13.8,30.06,NNW,348,0.0,2.0,47,0.00,,,0.00,Wunderground v.1.15,2013-01-03 17:20:00,
2013-01-03 12:25:00,31.6,14.1,30.06,SW,231,0.0,6.0,48,0.00,,,0.00,Wunderground v.1.15,2013-01-03 17:25:00,
2013-01-03 12:30:00,31.8,14.3,30.05,WNW,292,0.0,1.0,48,0.00,,,0.00,Wunderground v.1.15,2013-01-03 17:30:00,
2013-01-03 12:35:00,31.9,14.9,30.05,SW,236,0.0,5.0,49,0.00,,,0.00,Wunderground v.1.15,2013-01-03 17:35:00,
2013-01-03 12:40:00,32.2,15.2,30.05,West,260,2.0,6.0,49,0.00,,,0.00,Wunderground v.1.15,2013-01-03 17:40:00,
2013-01-03 12:45:00,32.7,15.6,30.05,West,269,0.0,6.0,49,0.00,,,0.00,Wunderground v.1.15,2013-01-03 17:45:00,
2013-01-03 12:50:00,32.9,15.3,30.05,SW,226,0.0,2.0,48,0.00,,,0.00,Wunderground v.1.15,2013-01-03 17:50:00,
2013-01-03 12:55:00,33.1,15.0,30.05,SW,214,3.0,7.0,47,0.00,,,0.00,Wunderground v.1.15,2013-01-03 17:55:00,
2013-01-03 13:00:00,33.2,15.1,30.04,West,274,0.0,4.0,47,0.00,,,0.00,Wunderground v.1.15,2013-01-03 18:00:00,
2013-01-03 13:05:00,33.4,14.8,30.04,West,278,5.0,5.0,46,0.00,,,0.00,Wunderground v.1.15,2013-01-03 18:05:00,
2013-01-03 13:10:00,33.5,14.4,30.04,NNW,334,6.0,12.0,45,0.00,,,0.00,Wunderground v.1.15,2013-01-03 18:10:00,
2013-01-03 13:15:00,33.4,13.8,30.03,WNW,296,2.0,12.0,44,0.00,,,0.00,Wunderground v.1.15,2013-01-03 18:15:00,
2013-01-03 13:20:00,33.2,13.6,30.03,WNW,296,6.0,6.0,44,0.00,,,0.00,Wunderground v.1.15,2013-01-03 18:20:00,
2013-01-03 13:25:00,33.1,13.0,30.03,WNW,284,3.0,9.0,43,0.00,,,0.00,Wunderground v.1.15,2013-01-03 18:25:00,
2013-01-03 13:30:00,32.9,12.8,30.03,NNW,344,2.0,4.0,43,0.00,,,0.00,Wunderground v.1.15,2013-01-03 18:30:00,
2013-01-03 13:35:00,32.8,13.2,30.03,WNW,300,2.0,10.0,44,0.00,,,0.00,Wunderground v.1.15,2013-01-03 18:35:00,
2013-01-03 13:40:00,33.1,13.5,30.03,WSW,250,7.0,8.0,44,0.00,,,0.00,Wunderground v.1.15,2013-01-03 18:40:00,
2013-01-03 13:45:00,33.1,13.0,30.02,WNW,291,10.0,10.0,43,0.00,,,0.00,Wunderground v.1.15,2013-01-03 18:45:00,
2013-01-03 13:50:00,33.1,12.5,30.02,West,279,4.0,6.0,42,0.00,,,0.00,Wunderground v.1.15,2013-01-03 18:50:00,
2013-01-03 13:55:00,33.2,12.6,30.02,WNW,285,0.0,8.0,42,0.00,,,0.00,Wunderground v.1.15,2013-01-03 18:55:00,
2013-01-03 14:00:00,33.2,13.1,30.02,WSW,244,0.0,3.0,43,0.00,,,0.00,Wunderground v.1.15,2013-01-03 19:00:00,
2013-01-03 14:05:00,33.4,12.7,30.02,NW,326,0.0,6.0,42,0.00,,,0.00,Wunderground v.1.15,2013-01-03 19:05:00,
2013-01-03 14:10:00,33.1,12.5,30.02,NW,305,0.0,3.0,42,0.00,,,0.00,Wunderground v.1.15,2013-01-03 19:10:00,
2013-01-03 14:15:00,32.9,12.8,30.02,North,360,0.0,7.0,43,0.00,,,0.00,Wunderground v.1.15,2013-01-03 19:15:00,
2013-01-03 14:58:00,33.2,13.1,30.02,West,269,1.0,7.0,43,0.00,,,0.00,Wunderground v.1.15,2013-01-03 19:58:00,
2013-01-03 15:03:00,33.1,13.0,30.02,West,280,5.0,7.0,43,0.00,,,0.00,Wunderground v.1.15,2013-01-03 20:03:00,
2013-01-03 15:08:00,32.9,13.3,30.02,NW,306,2.0,11.0,44,0.00,,,0.00,Wunderground v.1.15,2013-01-03 20:08:00,
2013-01-03 15:13:00,32.9,13.3,30.02,SW,234,1.0,7.0,44,0.00,,,0.00,Wunderground v.1.15,2013-01-03 20:13:00,
2013-01-03 15:18:00,32.9,13.3,30.01,WNW,302,2.0,8.0,44,0.00,,,0.00,Wunderground v.1.15,2013-01-03 20:18:00,
2013-01-03 15:23:00,32.9,13.3,30.01,NW,321,5.0,10.0,44,0.00,,,0.00,Wunderground v.1.15,2013-01-03 20:23:00,
2013-01-03 15:28:00,32.8,13.2,30.01,West,279,3.0,10.0,44,0.00,,,0.00,Wunderground v.1.15,2013-01-03 20:28:00,
2013-01-03 15:33:00,32.8,13.2,30.01,NW,309,2.0,6.0,44,0.00,,,0.00,Wunderground v.1.15,2013-01-03 20:33:00,
2013-01-03 15:38:00,32.8,13.2,30.01,WNW,300,2.0,6.0,44,0.00,,,0.00,Wunderground v.1.15,2013-01-03 20:38:00,
2013-01-03 15:43:00,32.8,13.2,30.01,North,9,2.0,6.0,44,0.00,,,0.00,Wunderground v.1.15,2013-01-03 20:43:00,
2013-01-03 15:48:00,32.8,13.2,30.01,NW,315,1.0,8.0,44,0.00,,,0.00,Wunderground v.1.15,2013-01-03 20:48:00,
2013-01-03 15:53:00,32.8,13.2,30.01,SW,233,1.0,8.0,44,0.00,,,0.00,Wunderground v.1.15,2013-01-03 20:53:00,
2013-01-03 15:58:00,32.8,13.2,30.01,West,273,0.0,8.0,44,0.00,,,0.00,Wunderground v.1.15,2013-01-03 20:58:00,
2013-01-03 16:03:00,32.7,13.2,30.02,WNW,302,0.0,5.0,44,0.00,,,0.00,Wunderground v.1.15,2013-01-03 21:03:00,
2013-01-03 16:08:00,32.7,13.2,30.02,WSW,238,1.0,5.0,44,0.00,,,0.00,Wunderground v.1.15,2013-01-03 21:08:00,
2013-01-03 16:13:00,32.5,13.0,30.02,West,267,1.0,2.0,44,0.00,,,0.00,Wunderground v.1.15,2013-01-03 21:13:00,
2013-01-03 16:18:00,32.5,13.5,30.02,WNW,300,0.0,6.0,45,0.00,,,0.00,Wunderground v.1.15,2013-01-03 21:18:00,
2013-01-03 16:23:00,32.4,13.4,30.02,SW,223,0.0,7.0,45,0.00,,,0.00,Wunderground v.1.15,2013-01-03 21:23:00,
2013-01-03 16:28:00,32.4,13.4,30.02,West,269,1.0,7.0,45,0.00,,,0.00,Wunderground v.1.15,2013-01-03 21:28:00,
2013-01-03 16:33:00,32.2,13.2,30.02,West,263,0.0,5.0,45,0.00,,,0.00,Wunderground v.1.15,2013-01-03 21:33:00,
2013-01-03 16:38:00,32.1,13.6,30.02,West,263,3.0,5.0,46,0.00,,,0.00,Wunderground v.1.15,2013-01-03 21:38:00,
2013-01-03 16:44:00,31.9,13.4,30.02,WNW,290,1.0,1.0,46,0.00,,,0.00,Wunderground v.1.15,2013-01-03 21:44:00,
2013-01-03 16:49:00,31.8,13.3,30.02,South,183,1.0,3.0,46,0.00,,,0.00,Wunderground v.1.15,2013-01-03 21:49:00,
2013-01-03 16:55:00,31.6,13.2,30.02,West,273,0.0,4.0,46,0.00,,,0.00,Wunderground v.1.15,2013-01-03 21:55:00,
2013-01-03 17:00:00,31.5,13.6,30.03,WSW,238,0.0,0.0,47,0.00,,,0.00,Wunderground v.1.15,2013-01-03 22:00:00,
2013-01-03 17:05:00,31.3,13.4,30.03,West,272,0.0,2.0,47,0.00,,,0.00,Wunderground v.1.15,2013-01-03 22:05:00,
2013-01-03 17:10:00,31.2,13.8,30.03,SW,236,1.0,1.0,48,0.00,,,0.00,Wunderground v.1.15,2013-01-03 22:10:00,
2013-01-03 17:15:00,31.0,13.6,30.03,West,261,2.0,3.0,48,0.00,,,0.00,Wunderground v.1.15,2013-01-03 22:15:00,
2013-01-03 17:20:00,30.9,14.0,30.03,West,263,0.0,1.0,49,0.00,,,0.00,Wunderground v.1.15,2013-01-03 22:20:00,
2013-01-03 17:25:00,30.7,13.8,30.03,South,184,3.0,3.0,49,0.00,,,0.00,Wunderground v.1.15,2013-01-03 22:25:00,
2013-01-03 17:30:00,30.7,14.2,30.03,West,272,1.0,1.0,50,0.00,,,0.00,Wunderground v.1.15,2013-01-03 22:30:00,
2013-01-03 17:35:00,30.6,14.1,30.03,WNW,288,6.0,6.0,50,0.00,,,0.00,Wunderground v.1.15,2013-01-03 22:35:00,
2013-01-03 17:40:00,30.6,14.6,30.03,West,259,2.0,2.0,51,0.00,,,0.00,Wunderground v.1.15,2013-01-03 22:40:00,
2013-01-03 17:45:00,30.6,14.6,30.04,SW,233,3.0,10.0,51,0.00,,,0.00,Wunderground v.1.15,2013-01-03 22:45:00,
2013-01-03 17:50:00,30.6,15.0,30.04,WNW,286,2.0,2.0,52,0.00,,,0.00,Wunderground v.1.15,2013-01-03 22:50:00,
2013-01-03 17:55:00,30.6,15.0,30.04,WNW,290,0.0,4.0,52,0.00,,,0.00,Wunderground v.1.15,2013-01-03 22:55:00,
2013-01-03 18:00:00,30.4,14.9,30.04,WNW,290,0.0,0.0,52,0.00,,,0.00,Wunderground v.1.15,2013-01-03 23:00:00,
2013-01-03 18:05:00,30.3,15.2,30.04,WNW,290,0.0,2.0,53,0.00,,,0.00,Wunderground v.1.15,2013-01-03 23:05:00,
2013-01-03 18:10:00,30.1,15.0,30.04,SW,223,0.0,0.0,53,0.00,,,0.00,Wunderground v.1.15,2013-01-03 23:10:00,
2013-01-03 18:15:00,30.0,15.3,30.04,SW,223,0.0,4.0,54,0.00,,,0.00,Wunderground v.1.15,2013-01-03 23:15:00,
2013-01-03 18:20:00,30.0,15.3,30.04,West,262,2.0,2.0,54,0.00,,,0.00,Wunderground v.1.15,2013-01-03 23:20:00,
2013-01-03 18:25:00,30.0,15.3,30.04,West,270,1.0,3.0,54,0.00,,,0.00,Wunderground v.1.15,2013-01-03 23:25:00,
2013-01-03 18:30:00,30.0,15.8,30.04,West,269,1.0,2.0,55,0.00,,,0.00,Wunderground v.1.15,2013-01-03 23:30:00,
2013-01-03 18:35:00,29.8,15.6,30.04,West,269,0.0,2.0,55,0.00,,,0.00,Wunderground v.1.15,2013-01-03 23:35:00,
2013-01-03 18:40:00,29.8,15.6,30.04,West,269,1.0,1.0,55,0.00,,,0.00,Wunderground v.1.15,2013-01-03 23:40:00,
2013-01-03 18:45:00,29.8,15.6,30.04,West,269,0.0,2.0,55,0.00,,,0.00,Wunderground v.1.15,2013-01-03 23:45:00,
2013-01-03 18:50:00,29.7,15.9,30.04,West,269,0.0,1.0,56,0.00,,,0.00,Wunderground v.1.15,2013-01-03 23:50:00,
2013-01-03 18:55:00,29.5,15.7,30.04,West,269,0.0,2.0,56,0.00,,,0.00,Wunderground v.1.15,2013-01-03 23:55:00,
2013-01-03 19:00:00,29.5,15.7,30.04,West,269,1.0,1.0,56,0.00,,,0.00,Wunderground v.1.15,2013-01-04 00:00:00,
2013-01-03 19:05:00,29.4,15.6,30.04,West,269,0.0,1.0,56,0.00,,,0.00,Wunderground v.1.15,2013-01-04 00:05:00,
2013-01-03 19:10:00,29.3,15.9,30.04,West,269,0.0,0.0,57,0.00,,,0.00,Wunderground v.1.15,2013-01-04 00:10:00,
2013-01-03 19:15:00,29.1,15.7,30.04,West,269,0.0,0.0,57,0.00,,,0.00,Wunderground v.1.15,2013-01-04 00:15:00,
2013-01-03 19:20:00,29.0,15.7,30.04,West,269,0.0,0.0,57,0.00,,,0.00,Wunderground v.1.15,2013-01-04 00:20:00,
2013-01-03 19:25:00,28.8,15.5,30.04,West,269,0.0,1.0,57,0.00,,,0.00,Wunderground v.1.15,2013-01-04 00:25:00,
2013-01-03 19:30:00,28.8,15.9,30.04,West,269,1.0,2.0,58,0.00,,,0.00,Wunderground v.1.15,2013-01-04 00:30:00,
2013-01-03 19:35:00,28.8,15.9,30.04,West,269,0.0,2.0,58,0.00,,,0.00,Wunderground v.1.15,2013-01-04 00:35:00,
2013-01-03 19:40:00,29.0,16.1,30.04,West,269,0.0,0.0,58,0.00,,,0.00,Wunderground v.1.15,2013-01-04 00:40:00,
2013-01-03 19:45:00,28.8,16.3,30.04,West,269,0.0,2.0,59,0.00,,,0.00,Wunderground v.1.15,2013-01-04 00:45:00,
2013-01-03 19:50:00,28.8,16.3,30.04,West,269,0.0,0.0,59,0.00,,,0.00,Wunderground v.1.15,2013-01-04 00:50:00,
2013-01-03 19:55:00,28.8,16.3,30.04,West,269,0.0,1.0,59,0.00,,,0.00,Wunderground v.1.15,2013-01-04 00:55:00,
2013-01-03 20:00:00,28.8,16.3,30.04,West,269,1.0,1.0,59,0.00,,,0.00,Wunderground v.1.15,2013-01-04 01:00:00,
2013-01-03 20:05:00,28.7,16.2,30.04,West,269,0.0,3.0,59,0.00,,,0.00,Wunderground v.1.15,2013-01-04 01:05:00,
2013-01-03 20:10:00,28.7,16.2,30.04,West,270,0.0,0.0,59,0.00,,,0.00,Wunderground v.1.15,2013-01-04 01:10:00,
2013-01-03 20:15:00,28.5,16.0,30.04,West,269,0.0,0.0,59,0.00,,,0.00,Wunderground v.1.15,2013-01-04 01:15:00,